Time;durP1;ratioP1;P1;durP2;ratioP2;P2;SDS_P1;SDS_P2;PMS_P1;PMS_P2;Temp;Humidity;BMP_temperature;BMP_pressure;BME280_temperature;BME280_humidity;BME280_pressure;Samples;Min_cycle;Max_cycle;Signal;HPM_P1;HPM_P2
2023/11/21 00:05:23;;;;;;;30.17;16.55;;;7.60;99.90;;;;;;15276542;23;20026;-81
2023/11/21 00:11:25;;;;;;;28.75;16.63;;;7.60;99.90;;;;;;15284224;23;20025;-81
2023/11/21 00:17:28;;;;;;;30.15;16.27;;;7.50;99.90;;;;;;15313558;23;20025;-82
2023/11/21 00:23:30;;;;;;;32.55;15.70;;;7.50;99.90;;;;;;15318929;23;20032;-82
2023/11/21 00:29:32;;;;;;;29.77;16.45;;;7.50;99.90;;;;;;15315059;23;20074;-82
2023/11/21 00:35:35;;;;;;;33.35;18.15;;;7.50;99.90;;;;;;15287423;22;20041;-82
2023/11/21 00:41:37;;;;;;;34.75;17.15;;;7.50;99.90;;;;;;15269986;23;20025;-82
2023/11/21 00:47:39;;;;;;;32.85;16.33;;;7.60;99.90;;;;;;15268197;23;20411;-82
2023/11/21 00:53:41;;;;;;;33.42;16.55;;;7.50;99.90;;;;;;15264991;23;20029;-82
2023/11/21 00:59:43;;;;;;;32.13;16.38;;;7.50;99.90;;;;;;15260366;23;20029;-82
2023/11/21 01:05:45;;;;;;;36.42;17.35;;;7.50;99.90;;;;;;15258564;23;20052;-82
2023/11/21 01:11:47;;;;;;;41.40;17.67;;;7.60;99.90;;;;;;15265358;22;20022;-82
2023/11/21 01:17:49;;;;;;;33.22;17.23;;;7.50;99.90;;;;;;15254434;23;20032;-81
2023/11/21 01:23:51;;;;;;;37.10;17.48;;;7.50;99.90;;;;;;15252482;23;20363;-82
2023/11/21 01:29:53;;;;;;;39.67;18.30;;;7.50;99.90;;;;;;15259053;23;20032;-82
2023/11/21 01:35:56;;;;;;;34.45;17.48;;;7.50;99.90;;;;;;15260417;23;20018;-81
2023/11/21 01:41:58;;;;;;;35.25;17.05;;;7.50;99.90;;;;;;15258098;23;20029;-82
2023/11/21 01:48:01;;;;;;;40.88;17.58;;;7.60;99.90;;;;;;15254823;23;20021;-82
2023/11/21 01:54:04;;;;;;;40.58;16.63;;;7.60;99.90;;;;;;15258254;23;20025;-82
2023/11/21 02:00:19;;;;;;;39.72;16.83;;;7.60;99.90;;;;;;15259506;23;20394;-82
2023/11/21 02:06:21;;;;;;;41.95;17.67;;;7.60;99.90;;;;;;15256865;23;20029;-83
2023/11/21 02:12:26;;;;;;;38.20;17.00;;;7.60;99.90;;;;;;15248691;23;20381;-82
2023/11/21 02:18:28;;;;;;;;;;;7.70;99.90;;;;;;15249952;23;20018;-82
2023/11/21 02:24:31;;;;;;;29.60;15.23;;;7.60;99.90;;;;;;15250421;23;20420;-82
2023/11/21 02:30:33;;;;;;;26.83;13.93;;;7.60;99.90;;;;;;15253354;23;20031;-82
2023/11/21 02:36:35;;;;;;;35.50;15.43;;;7.60;99.90;;;;;;15254843;23;20069;-82
2023/11/21 02:42:39;;;;;;;34.00;15.02;;;7.60;99.90;;;;;;15249575;23;20070;-82
2023/11/21 02:48:41;;;;;;;35.53;14.68;;;7.60;99.90;;;;;;15254284;23;20022;-82
2023/11/21 02:54:43;;;;;;;34.42;14.75;;;7.60;99.90;;;;;;15256030;23;20030;-82
2023/11/21 03:00:45;;;;;;;29.45;14.77;;;7.70;99.90;;;;;;15220809;23;20060;-81
2023/11/21 03:06:46;;;;;;;28.10;14.95;;;7.70;99.90;;;;;;15233503;23;20459;-81
2023/11/21 03:12:49;;;;;;;34.35;14.55;;;7.70;99.90;;;;;;15246593;23;20029;-82
2023/11/21 03:18:52;;;;;;;30.08;14.02;;;7.70;99.90;;;;;;15247814;23;20391;-81
2023/11/21 03:24:54;;;;;;;29.55;15.05;;;7.70;99.90;;;;;;15246954;23;20223;-82
2023/11/21 03:30:56;;;;;;;32.58;14.45;;;7.70;99.90;;;;;;15242179;23;20028;-81
2023/11/21 03:36:58;;;;;;;40.10;15.30;;;7.70;99.90;;;;;;15247299;23;20022;-81
2023/11/21 03:43:01;;;;;;;38.30;14.32;;;7.70;99.90;;;;;;15249899;23;20057;-82
2023/11/21 03:49:03;;;;;;;34.53;15.43;;;7.80;99.90;;;;;;15243982;23;20123;-82
2023/11/21 03:55:05;;;;;;;32.40;14.15;;;7.70;99.90;;;;;;15256654;23;20036;-82
2023/11/21 04:01:07;;;;;;;33.80;14.57;;;7.80;99.90;;;;;;15258648;22;20024;-81
2023/11/21 04:07:09;;;;;;;38.03;15.00;;;7.70;99.90;;;;;;15256164;23;20470;-81
2023/11/21 04:13:10;;;;;;;33.42;14.48;;;7.80;99.90;;;;;;15253893;23;20025;-82
2023/11/21 04:19:14;;;;;;;36.88;15.73;;;7.80;99.90;;;;;;15253703;23;20462;-81
2023/11/21 04:25:16;;;;;;;41.03;16.20;;;7.90;99.90;;;;;;15257142;23;20051;-81
2023/11/21 04:31:19;;;;;;;40.05;17.20;;;7.90;99.90;;;;;;15251653;23;20095;-81
2023/11/21 04:37:21;;;;;;;38.28;17.42;;;8.00;99.90;;;;;;15256874;23;20057;-82
2023/11/21 04:43:23;;;;;;;29.90;14.73;;;8.00;99.90;;;;;;15255324;23;20025;-81
2023/11/21 04:49:25;;;;;;;39.47;16.30;;;7.90;99.90;;;;;;15254656;23;20056;-82
2023/11/21 04:55:28;;;;;;;29.35;14.45;;;8.00;99.90;;;;;;15265292;23;20030;-82
2023/11/21 05:01:30;;;;;;;32.15;14.57;;;8.00;99.90;;;;;;15254219;23;20028;-82
2023/11/21 05:07:32;;;;;;;35.80;14.70;;;7.90;99.90;;;;;;15249512;23;20025;-82
2023/11/21 05:13:34;;;;;;;26.17;12.98;;;7.90;99.90;;;;;;15251942;23;20022;-81
2023/11/21 05:19:37;;;;;;;40.08;14.80;;;7.90;99.90;;;;;;15252028;22;20028;-81
2023/11/21 05:25:39;;;;;;;31.80;13.88;;;7.80;99.90;;;;;;15250603;23;20022;-82
2023/11/21 05:31:42;;;;;;;33.22;13.95;;;7.80;99.90;;;;;;15253750;22;20029;-81
2023/11/21 05:37:47;;;;;;;36.15;14.30;;;7.90;99.90;;;;;;15243586;23;20047;-82
2023/11/21 05:43:49;;;;;;;29.02;13.73;;;7.80;99.90;;;;;;15252426;23;20069;-82
2023/11/21 05:49:51;;;;;;;26.05;12.63;;;7.90;99.90;;;;;;15252433;23;20061;-82
2023/11/21 05:55:55;;;;;;;29.02;13.57;;;8.00;99.90;;;;;;15253744;23;20032;-82
2023/11/21 06:01:57;;;;;;;25.02;13.35;;;7.90;99.90;;;;;;15251040;23;20026;-81
2023/11/21 06:08:00;;;;;;;22.15;12.55;;;7.90;99.90;;;;;;15250980;23;20444;-82
2023/11/21 06:14:03;;;;;;;31.47;14.47;;;8.00;99.90;;;;;;15247400;23;20456;-82
2023/11/21 06:20:14;;;;;;;32.35;14.77;;;7.90;99.90;;;;;;15249424;23;20022;-82
2023/11/21 06:26:16;;;;;;;28.90;13.93;;;7.90;99.90;;;;;;15250988;23;20021;-83
2023/11/21 06:32:20;;;;;;;32.08;14.20;;;7.90;99.90;;;;;;15247878;23;20032;-83
2023/11/21 06:38:22;;;;;;;35.33;15.40;;;7.90;99.90;;;;;;15250512;23;20025;-83
2023/11/21 06:44:24;;;;;;;30.50;14.38;;;7.80;99.90;;;;;;15245360;23;20029;-84
2023/11/21 06:50:26;;;;;;;27.30;13.60;;;7.70;99.90;;;;;;15250722;23;20628;-83
2023/11/21 06:56:28;;;;;;;29.58;13.82;;;7.80;99.90;;;;;;15247988;23;20029;-83
2023/11/21 07:02:31;;;;;;;26.35;11.90;;;7.80;99.90;;;;;;15245942;23;20029;-83
2023/11/21 07:08:33;;;;;;;30.05;13.27;;;7.80;99.90;;;;;;15247726;23;20470;-83
2023/11/21 07:14:35;;;;;;;26.77;12.88;;;7.70;99.90;;;;;;15249769;23;20025;-84
2023/11/21 07:20:37;;;;;;;26.52;12.30;;;7.70;99.90;;;;;;15255669;23;20025;-83
2023/11/21 07:26:39;;;;;;;26.85;13.50;;;7.80;99.90;;;;;;15248427;23;20037;-82
2023/11/21 07:32:41;;;;;;;22.67;11.57;;;7.80;99.90;;;;;;15249723;23;20026;-83
2023/11/21 07:38:43;;;;;;;18.92;11.75;;;7.80;99.90;;;;;;15259108;23;20022;-83
2023/11/21 07:44:46;;;;;;;17.15;10.60;;;7.80;99.90;;;;;;15248470;23;20119;-84
2023/11/21 07:50:48;;;;;;;22.48;11.35;;;7.80;99.90;;;;;;15254359;23;20026;-84
2023/11/21 07:56:50;;;;;;;14.52;11.30;;;7.80;99.90;;;;;;15251636;23;20025;-84
2023/11/21 08:02:52;;;;;;;15.65;11.05;;;7.90;99.90;;;;;;15255195;23;20095;-84
2023/11/21 08:08:54;;;;;;;12.57;9.52;;;7.90;99.90;;;;;;15244044;23;20026;-84
2023/11/21 08:14:56;;;;;;;13.00;10.10;;;7.90;99.90;;;;;;15248800;23;20459;-85
2023/11/21 08:20:58;;;;;;;13.15;9.70;;;7.90;99.90;;;;;;15249845;23;20040;-83
2023/11/21 08:27:00;;;;;;;19.10;11.70;;;7.90;99.90;;;;;;15245707;23;20030;-84
2023/11/21 08:33:03;;;;;;;13.80;10.75;;;8.00;99.90;;;;;;15248965;23;20030;-84
2023/11/21 08:39:05;;;;;;;16.60;12.13;;;7.90;99.90;;;;;;15249653;23;20057;-83
2023/11/21 08:45:08;;;;;;;18.10;11.43;;;7.90;99.90;;;;;;15245104;23;20037;-83
2023/11/21 08:51:11;;;;;;;96.93;10.02;;;7.90;99.90;;;;;;15250958;23;20030;-82
2023/11/21 08:57:13;;;;;;;48.47;8.98;;;7.70;99.90;;;;;;15255143;23;20025;-83
2023/11/21 09:03:15;;;;;;;30.25;7.40;;;7.60;99.90;;;;;;15253855;23;20033;-83
2023/11/21 09:09:19;;;;;;;50.40;8.13;;;7.60;99.90;;;;;;15253727;23;20025;-82
2023/11/21 09:15:21;;;;;;;14.65;7.63;;;7.60;99.90;;;;;;15251665;23;20036;-83
2023/11/21 09:21:24;;;;;;;51.65;7.95;;;7.60;99.90;;;;;;15250317;23;20052;-83
2023/11/21 09:27:26;;;;;;;50.95;7.38;;;7.50;99.90;;;;;;15251143;23;20041;-83
2023/11/21 09:33:30;;;;;;;120.22;9.05;;;7.40;99.90;;;;;;15249745;23;20018;-82
2023/11/21 09:39:35;;;;;;;7.27;6.67;;;7.40;99.90;;;;;;15249780;23;20021;-82
2023/11/21 09:45:39;;;;;;;9.05;7.18;;;7.50;99.90;;;;;;15248784;23;20025;-82
2023/11/21 09:51:43;;;;;;;17.57;7.20;;;7.30;99.90;;;;;;15251583;23;20389;-82
2023/11/21 09:57:45;;;;;;;9.57;7.67;;;7.20;99.90;;;;;;15250806;23;20508;-83
2023/11/21 10:03:47;;;;;;;8.50;7.72;;;7.00;99.90;;;;;;15247823;23;20049;-83
2023/11/21 10:09:51;;;;;;;8.57;7.75;;;7.10;99.90;;;;;;15248488;23;20026;-83
2023/11/21 10:15:53;;;;;;;7.68;6.97;;;7.10;99.90;;;;;;15249382;23;20369;-82
2023/11/21 10:21:57;;;;;;;8.57;7.18;;;7.00;99.90;;;;;;15252283;23;20031;-82
2023/11/21 10:28:04;;;;;;;10.45;7.10;;;6.90;99.90;;;;;;15243877;23;20025;-82
2023/11/21 10:34:16;;;;;;;9.70;6.90;;;6.80;99.90;;;;;;15248041;23;20025;-83
2023/11/21 10:40:18;;;;;;;9.27;7.53;;;6.70;99.90;;;;;;15250247;23;20048;-83
2023/11/21 10:46:20;;;;;;;11.18;9.23;;;6.70;99.90;;;;;;15245637;23;20022;-83
2023/11/21 10:52:27;;;;;;;10.82;7.80;;;6.70;99.90;;;;;;15250098;23;20021;-82
2023/11/21 10:58:29;;;;;;;10.70;7.15;;;6.60;99.90;;;;;;15254091;23;20021;-82
2023/11/21 11:04:31;;;;;;;10.00;7.13;;;6.50;99.90;;;;;;15252905;23;20035;-83
2023/11/21 11:10:34;;;;;;;10.35;6.68;;;6.60;99.90;;;;;;15243343;23;20032;-82
2023/11/21 11:16:39;;;;;;;10.50;6.60;;;6.60;99.90;;;;;;15248805;23;20029;-83
2023/11/21 11:22:50;;;;;;;13.40;7.47;;;6.40;99.90;;;;;;15249504;23;20021;-83
2023/11/21 11:29:11;;;;;;;10.90;7.35;;;6.40;99.90;;;;;;15252830;23;20026;-82
2023/11/21 11:35:30;;;;;;;12.57;8.05;;;6.40;99.90;;;;;;15249178;23;20021;-82
2023/11/21 11:41:34;;;;;;;10.90;7.22;;;6.40;99.90;;;;;;15250954;23;20017;-82
2023/11/21 11:47:38;;;;;;;12.93;8.07;;;6.50;99.90;;;;;;15251024;23;20102;-82
2023/11/21 11:53:45;;;;;;;10.87;7.37;;;6.40;99.90;;;;;;15256462;23;20044;-82
2023/11/21 12:00:18;;;;;;;11.82;7.10;;;6.60;99.90;;;;;;15251801;23;20026;-81
2023/11/21 12:06:33;;;;;;;10.65;6.35;;;6.50;99.90;;;;;;15238280;23;20099;-82
2023/11/21 12:12:35;;;;;;;12.55;6.70;;;6.40;99.90;;;;;;15250996;23;20036;-81
2023/11/21 12:18:38;;;;;;;9.02;5.80;;;6.40;99.90;;;;;;15251683;23;20026;-81
2023/11/21 12:24:40;;;;;;;11.10;5.22;;;6.40;99.90;;;;;;15251629;23;20026;-81
2023/11/21 12:30:42;;;;;;;8.38;5.22;;;6.50;99.90;;;;;;15245896;23;20490;-81
2023/11/21 12:36:45;;;;;;;9.53;4.97;;;6.50;99.90;;;;;;15249414;23;20037;-81
2023/11/21 12:42:53;;;;;;;8.52;5.07;;;6.70;99.90;;;;;;15246112;23;20017;-81
2023/11/21 12:48:56;;;;;;;9.00;5.18;;;6.80;99.90;;;;;;15247160;23;20029;-81
2023/11/21 12:54:58;;;;;;;7.90;4.88;;;6.80;99.90;;;;;;15252864;23;20029;-81
2023/11/21 13:01:00;;;;;;;8.38;4.82;;;6.80;99.90;;;;;;15252732;23;20458;-81
2023/11/21 13:07:14;;;;;;;7.95;4.32;;;6.80;99.90;;;;;;15248475;23;20021;-81
2023/11/21 13:13:18;;;;;;;5.85;3.92;;;6.80;99.90;;;;;;15245834;23;20041;-82
2023/11/21 13:19:27;;;;;;;6.63;4.28;;;6.90;99.90;;;;;;15253381;23;20119;-81
2023/11/21 13:25:31;;;;;;;6.95;4.25;;;6.80;99.90;;;;;;15250934;23;20022;-82
2023/11/21 13:31:37;;;;;;;6.63;4.40;;;7.00;99.90;;;;;;15248754;23;20029;-81
2023/11/21 13:37:39;;;;;;;6.85;4.28;;;7.00;99.90;;;;;;15245527;23;20030;-81
2023/11/21 13:43:45;;;;;;;8.05;4.50;;;6.80;99.90;;;;;;15249274;23;20118;-81
2023/11/21 13:49:47;;;;;;;6.45;4.10;;;7.00;99.90;;;;;;15251759;22;20034;-82
2023/11/21 13:55:54;;;;;;;7.00;4.25;;;6.90;99.90;;;;;;15251927;23;20026;-81
2023/11/21 14:02:11;;;;;;;7.78;3.92;;;6.70;99.90;;;;;;15250769;23;20049;-81
2023/11/21 14:08:16;;;;;;;6.15;3.95;;;6.70;99.90;;;;;;15250556;23;20215;-81
2023/11/21 14:14:21;;;;;;;6.78;3.95;;;6.60;99.90;;;;;;15251890;23;20025;-81
2023/11/21 14:20:23;;;;;;;11.23;3.88;;;6.90;99.90;;;;;;15223034;23;20028;-81
2023/11/21 14:26:26;;;;;;;6.88;4.55;;;6.80;99.90;;;;;;15247098;22;20029;-82
2023/11/21 14:32:29;;;;;;;8.90;4.00;;;6.70;99.90;;;;;;15249690;23;20030;-82
2023/11/21 14:38:31;;;;;;;8.23;4.43;;;6.60;99.90;;;;;;15249986;23;20040;-82
2023/11/21 14:44:38;;;;;;;6.82;3.95;;;6.60;99.90;;;;;;15246402;23;20044;-81
2023/11/21 14:51:25;;;;;;;8.38;4.07;;;6.60;99.90;;;;;;15249388;23;20017;-81
2023/11/21 14:57:15;;;;;;;6.65;4.07;;;6.40;99.90;;;;;;15253321;23;20025;-81
2023/11/21 15:15:37;;;;;;;5.85;3.85;;;6.40;99.90;;;;;;15250008;23;20096;-81
2023/11/21 15:21:39;;;;;;;6.47;3.58;;;6.30;99.90;;;;;;15249556;23;20017;-81
2023/11/21 15:27:41;;;;;;;7.57;4.28;;;6.30;99.90;;;;;;15246057;23;20040;-81
2023/11/21 15:33:43;;;;;;;5.38;3.85;;;6.30;99.90;;;;;;15251308;23;20021;-81
2023/11/21 15:39:45;;;;;;;7.13;4.15;;;6.40;99.90;;;;;;15250430;23;20025;-81
2023/11/21 15:45:47;;;;;;;6.63;3.80;;;6.30;99.90;;;;;;15248682;23;20374;-81
2023/11/21 15:51:52;;;;;;;5.97;4.25;;;6.20;99.90;;;;;;15250521;23;20030;-81
2023/11/21 15:57:54;;;;;;;6.28;3.83;;;6.20;99.90;;;;;;15253996;23;20028;-81
2023/11/21 16:03:57;;;;;;;6.05;4.22;;;6.10;99.90;;;;;;15246687;23;20018;-81
2023/11/21 16:09:59;;;;;;;8.35;4.18;;;6.10;99.90;;;;;;15245735;23;20026;-81
2023/11/21 16:16:01;;;;;;;7.00;4.55;;;6.10;99.90;;;;;;15254722;23;20025;-81
2023/11/21 16:22:03;;;;;;;6.28;3.65;;;6.10;99.90;;;;;;15252848;23;20018;-81
2023/11/21 16:28:05;;;;;;;7.38;4.38;;;6.10;99.90;;;;;;15251229;23;20022;-81
2023/11/21 16:34:15;;;;;;;6.18;4.22;;;6.20;99.90;;;;;;15251659;23;20491;-81
2023/11/21 16:40:21;;;;;;;8.48;4.18;;;6.10;99.90;;;;;;15247354;23;20059;-81
2023/11/21 16:46:23;;;;;;;6.57;4.35;;;6.10;99.90;;;;;;15249581;23;20452;-81
2023/11/21 16:52:26;;;;;;;6.82;3.90;;;6.10;99.90;;;;;;15247229;23;20037;-81
2023/11/21 16:58:29;;;;;;;8.73;4.00;;;6.20;99.90;;;;;;15250420;23;20467;-81
2023/11/21 17:04:32;;;;;;;6.78;3.80;;;6.20;99.90;;;;;;15254666;23;20038;-81
2023/11/21 17:10:34;;;;;;;5.40;3.92;;;6.00;99.90;;;;;;15251411;23;20471;-82
2023/11/21 17:16:37;;;;;;;5.00;3.22;;;6.00;99.90;;;;;;15253447;23;20029;-81
2023/11/21 17:22:39;;;;;;;5.70;4.00;;;5.90;99.90;;;;;;15256243;23;20022;-81
2023/11/21 17:28:43;;;;;;;6.28;4.20;;;5.90;99.90;;;;;;15249597;22;20048;-79
2023/11/21 17:34:44;;;;;;;6.45;4.07;;;5.90;99.90;;;;;;15254998;23;20051;-81
2023/11/21 17:40:46;;;;;;;5.90;3.60;;;5.90;99.90;;;;;;15255298;23;20068;-81
2023/11/21 17:46:49;;;;;;;5.47;3.65;;;5.80;99.90;;;;;;15261778;23;20060;-81
2023/11/21 17:52:51;;;;;;;5.43;3.75;;;5.80;99.90;;;;;;15250224;23;20029;-81
2023/11/21 17:58:54;;;;;;;6.65;3.85;;;5.80;99.90;;;;;;15275441;23;20049;-81
2023/11/21 18:04:56;;;;;;;4.60;2.97;;;5.80;99.90;;;;;;15282311;22;20029;-81
2023/11/21 18:10:59;;;;;;;4.20;2.92;;;5.60;99.90;;;;;;15291943;23;20026;-82
2023/11/21 18:17:01;;;;;;;3.53;2.60;;;5.70;99.90;;;;;;15270337;23;20026;-82
2023/11/21 18:23:03;;;;;;;6.47;3.05;;;5.70;99.90;;;;;;15275556;23;20112;-81
2023/11/21 18:29:05;;;;;;;4.93;3.13;;;5.60;99.90;;;;;;15275052;23;20036;-81
2023/11/21 18:35:08;;;;;;;5.65;2.95;;;5.70;99.90;;;;;;15273675;23;20061;-81
2023/11/21 18:41:10;;;;;;;5.07;3.13;;;5.70;99.90;;;;;;15267684;23;20445;-81
2023/11/21 18:47:14;;;;;;;4.80;3.10;;;5.60;99.90;;;;;;15261230;23;20025;-81
2023/11/21 18:53:17;;;;;;;4.57;2.72;;;5.50;99.90;;;;;;15250306;23;20032;-81
2023/11/21 18:59:20;;;;;;;4.38;2.92;;;5.60;99.90;;;;;;15250907;23;20063;-81
2023/11/21 19:05:22;;;;;;;4.70;2.85;;;5.50;99.90;;;;;;15553229;22;20020;-82
2023/11/21 19:11:24;;;;;;;6.15;3.03;;;5.50;99.90;;;;;;15553233;22;20141;-81
2023/11/21 19:17:27;;;;;;;4.65;3.00;;;5.50;99.90;;;;;;15561467;22;20030;-81
2023/11/21 19:23:29;;;;;;;5.00;3.10;;;5.50;99.90;;;;;;15559957;22;20023;-82
2023/11/21 19:29:31;;;;;;;4.25;2.80;;;5.40;99.90;;;;;;15565821;22;20035;-82
2023/11/21 19:35:38;;;;;;;5.85;3.03;;;5.50;99.90;;;;;;15561689;22;20074;-82
2023/11/21 19:41:41;;;;;;;4.97;3.15;;;5.60;99.90;;;;;;15558624;22;20203;-82
2023/11/21 19:47:45;;;;;;;5.70;3.25;;;5.50;99.90;;;;;;15559984;22;20023;-82
2023/11/21 19:53:48;;;;;;;4.78;3.17;;;5.50;99.90;;;;;;15561802;22;20053;-81
2023/11/21 19:59:49;;;;;;;4.78;3.17;;;5.50;99.90;;;;;;15535575;22;20021;-81
2023/11/21 20:05:51;;;;;;;7.65;3.42;;;5.50;99.90;;;;;;15249019;23;20179;-82
2023/11/21 20:11:54;;;;;;;8.20;3.75;;;5.50;99.90;;;;;;15251532;23;20037;-82
2023/11/21 20:17:55;;;;;;;7.20;4.47;;;5.50;99.90;;;;;;15252565;23;20040;-82
2023/11/21 20:23:57;;;;;;;6.88;4.50;;;5.60;99.90;;;;;;15250822;23;20066;-82
2023/11/21 20:29:59;;;;;;;6.55;4.13;;;5.70;99.90;;;;;;15253051;23;20027;-81
2023/11/21 20:36:02;;;;;;;6.28;4.35;;;5.70;99.90;;;;;;15250042;23;20022;-81
2023/11/21 20:42:06;;;;;;;5.97;4.03;;;5.60;99.90;;;;;;15252275;23;20026;-81
2023/11/21 20:48:08;;;;;;;5.05;3.58;;;5.60;99.90;;;;;;15251515;23;20021;-81
2023/11/21 20:54:10;;;;;;;6.45;3.45;;;5.30;99.90;;;;;;15253598;23;20110;-81
2023/11/21 21:00:15;;;;;;;4.35;2.53;;;5.10;99.90;;;;;;15252659;23;20391;-81
2023/11/21 21:06:16;;;;;;;;;;;4.80;99.90;;;;;;15252877;23;20026;-81
2023/11/21 21:12:19;;;;;;;3.85;2.50;;;4.90;99.90;;;;;;15251979;23;19999;-81
2023/11/21 21:18:21;;;;;;;3.72;2.30;;;4.90;99.90;;;;;;15249210;23;20022;-81
2023/11/21 21:24:23;;;;;;;3.20;2.22;;;4.90;99.90;;;;;;15252744;23;20071;-81
2023/11/21 21:30:27;;;;;;;6.50;2.90;;;5.10;99.90;;;;;;15252265;23;20040;-81
2023/11/21 21:36:31;;;;;;;5.60;2.97;;;4.90;99.90;;;;;;15250399;23;20041;-81
2023/11/21 21:42:35;;;;;;;5.50;3.03;;;4.90;99.90;;;;;;15250202;23;20025;-81
2023/11/21 21:48:36;;;;;;;5.25;3.20;;;4.90;99.90;;;;;;15249141;23;20098;-81
2023/11/21 21:54:39;;;;;;;5.50;2.88;;;4.80;99.90;;;;;;15253065;23;20484;-81
2023/11/21 22:00:42;;;;;;;9.73;3.30;;;4.60;99.90;;;;;;15248638;23;20021;-80
2023/11/21 22:06:44;;;;;;;5.68;3.25;;;4.40;99.90;;;;;;15246684;23;20028;-81
2023/11/21 22:12:46;;;;;;;4.90;2.90;;;4.30;99.90;;;;;;15245844;23;20022;-80
2023/11/21 22:18:47;;;;;;;5.80;3.30;;;4.20;99.90;;;;;;15249997;23;20028;-80
2023/11/21 22:24:53;;;;;;;5.90;3.00;;;4.10;99.90;;;;;;15247104;23;20394;-80
2023/11/21 22:30:55;;;;;;;4.07;2.60;;;4.00;99.90;;;;;;15244873;23;20032;-80
2023/11/21 22:36:57;;;;;;;4.50;2.60;;;4.00;99.90;;;;;;15247200;23;20408;-81
2023/11/21 22:42:59;;;;;;;7.53;3.10;;;4.20;99.90;;;;;;15242359;23;20357;-81
2023/11/21 22:49:01;;;;;;;5.28;3.08;;;4.20;99.90;;;;;;15250894;23;20036;-80
2023/11/21 22:55:04;;;;;;;3.70;2.55;;;4.30;99.90;;;;;;15249571;23;20029;-80
2023/11/21 23:01:11;;;;;;;5.28;2.50;;;4.40;99.90;;;;;;15248307;22;20510;-80
2023/11/21 23:07:13;;;;;;;5.53;2.97;;;4.50;99.90;;;;;;15245942;23;20463;-81
2023/11/21 23:13:15;;;;;;;5.15;2.97;;;4.40;99.90;;;;;;15248743;23;20379;-80
2023/11/21 23:19:17;;;;;;;5.35;3.20;;;4.30;99.90;;;;;;15251723;23;20018;-80
2023/11/21 23:25:20;;;;;;;6.80;3.30;;;4.10;99.90;;;;;;15246210;23;20029;-80
2023/11/21 23:31:22;;;;;;;6.47;3.22;;;3.70;99.90;;;;;;15255268;23;20030;-80
2023/11/21 23:37:24;;;;;;;3.80;2.38;;;3.30;99.90;;;;;;15253451;23;20480;-80
2023/11/21 23:43:28;;;;;;;4.25;2.70;;;3.20;99.90;;;;;;15254441;23;20060;-80
2023/11/21 23:49:30;;;;;;;;;;;3.20;99.90;;;;;;15252551;23;20025;-80
2023/11/21 23:55:32;;;;;;;4.28;2.63;;;3.20;99.90;;;;;;15257404;23;19923;-81
